createdAt,value
2023-02-18T00:01:45.842Z,77.32
2023-02-18T00:04:13.850Z,77.15
2023-02-18T00:06:41.807Z,76.65
2023-02-18T00:09:12.514Z,76.37
2023-02-18T00:11:40.711Z,76.35
2023-02-18T00:14:12.161Z,75.75
2023-02-18T00:16:40.289Z,76.01
2023-02-18T00:19:11.170Z,76.18
2023-02-18T00:21:39.560Z,75.67
2023-02-18T00:24:08.954Z,76.01
2023-02-18T00:26:38.261Z,76.18
2023-02-18T00:29:06.106Z,76.84
2023-02-18T00:31:36.125Z,76.44
2023-02-18T00:34:05.741Z,76.31
2023-02-18T00:36:34.367Z,75.30
2023-02-18T00:39:04.862Z,75.45
2023-02-18T00:41:33.377Z,75.93
2023-02-18T00:44:02.770Z,76.62
2023-02-18T00:46:31.070Z,75.58
2023-02-18T00:48:58.937Z,76.40
2023-02-18T00:51:26.969Z,75.75
2023-02-18T00:53:55.435Z,76.31
2023-02-18T00:56:23.504Z,76.04
2023-02-18T00:58:52.150Z,75.95
2023-02-18T01:01:22.071Z,76.17
2023-02-18T01:03:49.943Z,75.86
2023-02-18T01:06:17.834Z,75.75
2023-02-18T01:08:45.906Z,75.50
2023-02-18T01:11:14.530Z,75.38
2023-02-18T01:13:43.200Z,75.85
2023-02-18T01:16:15.250Z,75.17
2023-02-18T01:18:44.771Z,75.49
2023-02-18T01:21:12.844Z,75.20
2023-02-18T01:23:42.862Z,75.39
2023-02-18T01:26:11.826Z,75.27
2023-02-18T01:28:40.760Z,76.25
2023-02-18T01:31:10.944Z,76.02
2023-02-18T01:33:39.158Z,76.04
2023-02-18T01:36:10.165Z,76.90
2023-02-18T01:38:38.699Z,75.96
2023-02-18T01:41:07.451Z,76.65
2023-02-18T01:43:35.868Z,76.62
2023-02-18T01:46:13.637Z,77.74
2023-02-18T01:48:45.265Z,77.63
2023-02-18T01:51:18.298Z,77.05
2023-02-18T01:53:53.628Z,76.58
2023-02-18T01:56:27.246Z,77.06
2023-02-18T01:58:58.066Z,77.43
2023-02-18T02:01:27.923Z,77.70
2023-02-18T02:03:55.958Z,77.95
2023-02-18T02:06:26.764Z,77.26
2023-02-18T02:09:04.399Z,77.28
2023-02-18T02:11:59.715Z,77.16
2023-02-18T02:14:41.985Z,76.67
2023-02-18T02:17:17.982Z,77.55
2023-02-18T02:20:24.409Z,77.07
2023-02-18T02:23:35.813Z,78.23
2023-02-18T02:26:33.464Z,77.56
2023-02-18T02:29:18.519Z,76.68
2023-02-18T02:32:15.092Z,76.89
2023-02-18T02:34:53.066Z,77.43
2023-02-18T02:37:28.188Z,77.42
2023-02-18T02:40:06.196Z,77.26
2023-02-18T02:42:46.461Z,77.49
2023-02-18T02:45:25.127Z,77.06
2023-02-18T02:48:02.138Z,77.22
2023-02-18T02:50:38.884Z,77.63
2023-02-18T02:53:15.928Z,76.60
2023-02-18T02:55:43.942Z,76.80
2023-02-18T02:58:17.507Z,77.31
2023-02-18T03:01:02.365Z,77.02
2023-02-18T03:03:57.719Z,76.71
2023-02-18T03:06:45.654Z,76.80
2023-02-18T03:09:21.484Z,77.42
2023-02-18T03:11:59.813Z,76.64
2023-02-18T03:14:31.673Z,77.04
2023-02-18T03:17:03.247Z,77.50
2023-02-18T03:19:36.276Z,77.86
2023-02-18T03:22:10.100Z,77.48
2023-02-18T03:24:41.648Z,76.12
2023-02-18T03:27:16.402Z,76.84
2023-02-18T03:29:47.733Z,76.38
2023-02-18T03:32:19.682Z,76.78
2023-02-18T03:34:51.664Z,77.05
2023-02-18T03:37:21.712Z,77.73
2023-02-18T03:39:53.797Z,76.86
2023-02-18T03:42:26.119Z,78.10
2023-02-18T03:44:54.104Z,78.02
2023-02-18T03:47:22.062Z,77.76
2023-02-18T03:49:49.908Z,77.45
2023-02-18T03:52:17.881Z,77.21
2023-02-18T03:54:47.157Z,77.85
2023-02-18T03:57:14.987Z,77.47
2023-02-18T03:59:43.180Z,77.52
2023-02-18T04:02:11.126Z,77.27
2023-02-18T04:04:39.079Z,76.85
2023-02-18T04:07:07.090Z,76.44
2023-02-18T04:09:34.913Z,76.17
2023-02-18T04:12:04.155Z,76.18
2023-02-18T04:14:32.178Z,75.56
2023-02-18T04:16:59.979Z,75.90
2023-02-18T04:19:27.855Z,76.84
2023-02-18T04:21:55.730Z,76.88
2023-02-18T04:24:23.658Z,76.91
2023-02-18T04:26:51.603Z,77.67
2023-02-18T04:29:21.009Z,78.44
2023-02-18T04:31:48.946Z,78.08
2023-02-18T04:34:16.900Z,77.36
2023-02-18T04:36:44.886Z,78.52
2023-02-18T04:39:12.848Z,78.34
2023-02-18T04:41:40.927Z,79.11
2023-02-18T04:44:08.822Z,78.95
2023-02-18T04:46:38.048Z,78.82
2023-02-18T04:49:05.864Z,79.07
2023-02-18T04:51:33.830Z,78.61
2023-02-18T04:54:01.729Z,80.36
2023-02-18T04:56:29.566Z,80.76
2023-02-18T04:58:57.504Z,80.95
2023-02-18T05:01:25.345Z,81.18
2023-02-18T05:03:54.587Z,80.38
2023-02-18T05:06:22.523Z,81.04
2023-02-18T05:08:50.340Z,80.20
2023-02-18T05:11:18.204Z,81.16
2023-02-18T05:13:46.247Z,81.60
2023-02-18T05:16:14.187Z,81.56
2023-02-18T05:18:42.387Z,80.96
2023-02-18T05:21:12.299Z,80.75
2023-02-18T05:23:40.181Z,81.48
2023-02-18T05:26:08.218Z,81.95
2023-02-18T05:28:36.302Z,82.81
2023-02-18T05:31:04.412Z,82.38
2023-02-18T05:33:32.313Z,82.67
2023-02-18T05:36:00.192Z,82.79
2023-02-18T05:38:29.414Z,83.07
2023-02-18T05:40:57.430Z,83.67
2023-02-18T05:43:25.427Z,83.67
2023-02-18T05:45:53.346Z,83.67
2023-02-18T05:48:21.148Z,84.09
2023-02-18T05:50:49.034Z,84.43
2023-02-18T05:53:17.717Z,85.80
2023-02-18T05:55:46.992Z,85.72
2023-02-18T05:58:17.134Z,85.77
2023-02-18T06:00:45.031Z,85.55
2023-02-18T06:03:12.875Z,84.96
2023-02-18T06:05:40.770Z,85.62
2023-02-18T06:08:08.646Z,86.62
2023-02-18T06:10:36.520Z,86.19
2023-02-18T06:13:05.783Z,86.40
2023-02-18T06:15:33.975Z,87.56
2023-02-18T06:18:01.859Z,87.79
2023-02-18T06:20:29.744Z,87.02
2023-02-18T06:22:57.577Z,87.73
2023-02-18T06:25:25.781Z,87.65
2023-02-18T06:27:53.651Z,87.90
2023-02-18T06:30:24.332Z,87.73
2023-02-18T06:32:52.526Z,88.23
2023-02-18T06:35:20.457Z,87.56
2023-02-18T06:37:48.319Z,88.48
2023-02-18T06:40:16.232Z,87.47
2023-02-18T06:42:44.152Z,87.15
2023-02-18T06:45:12.010Z,87.38
2023-02-18T06:47:41.212Z,86.99
2023-02-18T06:50:09.517Z,86.28
2023-02-18T06:52:38.126Z,86.39
2023-02-18T06:55:07.016Z,85.71
2023-02-18T06:57:35.224Z,85.56
2023-02-18T07:00:03.152Z,86.27
2023-02-18T07:02:30.907Z,86.03
2023-02-18T07:05:00.345Z,85.58
2023-02-18T07:07:28.183Z,86.54
2023-02-18T07:09:56.018Z,86.60
2023-02-18T07:12:23.966Z,85.87
2023-02-18T07:14:51.861Z,86.80
2023-02-18T07:17:19.994Z,86.03
2023-02-18T07:19:48.179Z,85.61
2023-02-18T07:22:17.389Z,85.01
2023-02-18T07:24:45.539Z,84.75
2023-02-18T07:27:13.569Z,85.45
2023-02-18T07:29:41.404Z,85.36
2023-02-18T07:32:09.286Z,85.11
2023-02-18T07:34:37.346Z,85.08
2023-02-18T07:37:09.267Z,85.17
2023-02-18T07:39:41.379Z,84.89
2023-02-18T07:42:09.841Z,83.59
2023-02-18T07:44:38.397Z,84.52
2023-02-18T07:47:08.406Z,84.74
2023-02-18T07:49:36.457Z,84.25
2023-02-18T07:52:05.483Z,83.33
2023-02-18T07:54:33.576Z,83.84
2023-02-18T07:57:02.890Z,82.74
2023-02-18T07:59:30.930Z,83.37
2023-02-18T08:01:58.937Z,83.04
2023-02-18T08:04:26.971Z,82.87
2023-02-18T08:06:55.080Z,82.43
2023-02-18T08:09:23.037Z,82.07
2023-02-18T08:11:51.182Z,81.57
2023-02-18T08:14:20.604Z,81.94
2023-02-18T08:16:48.725Z,82.72
2023-02-18T08:19:16.798Z,82.07
2023-02-18T08:21:44.663Z,82.82
2023-02-18T08:24:12.774Z,82.89
2023-02-18T08:26:48.667Z,83.04
2023-02-18T08:29:28.720Z,82.23
2023-02-18T08:31:57.418Z,82.00
2023-02-18T08:34:25.336Z,82.58
2023-02-18T08:36:53.303Z,83.90
2023-02-18T08:39:21.210Z,83.91
2023-02-18T08:41:49.159Z,83.41
2023-02-18T08:44:17.202Z,85.34
2023-02-18T08:46:48.207Z,85.45
2023-02-18T08:49:16.174Z,86.19
2023-02-18T08:51:44.606Z,87.55
2023-02-18T08:54:12.436Z,86.76
2023-02-18T08:56:40.737Z,87.81
2023-02-18T08:59:08.733Z,88.40
2023-02-18T09:01:37.124Z,88.14
2023-02-18T09:04:06.695Z,88.14
2023-02-18T09:06:38.821Z,89.19
2023-02-18T09:09:07.288Z,89.77
2023-02-18T09:11:35.568Z,89.25
2023-02-18T09:14:04.123Z,89.76
2023-02-18T09:16:32.062Z,89.87
2023-02-18T09:19:00.111Z,91.12
2023-02-18T09:21:29.833Z,91.02
2023-02-18T09:23:57.679Z,91.51
2023-02-18T09:26:27.329Z,91.36
2023-02-18T09:28:56.546Z,91.62
2023-02-18T09:31:26.497Z,91.72
2023-02-18T09:33:56.820Z,91.35
2023-02-18T09:36:32.503Z,91.52
2023-02-18T09:39:01.019Z,91.98
2023-02-18T09:41:38.809Z,91.43
2023-02-18T09:44:12.730Z,92.26
2023-02-18T09:46:44.476Z,92.84
2023-02-18T09:49:18.425Z,92.92
2023-02-18T09:51:48.141Z,92.77
2023-02-18T09:54:19.917Z,93.16
2023-02-18T09:56:49.073Z,92.65
2023-02-18T09:59:20.010Z,93.02
2023-02-18T10:01:52.106Z,92.64
2023-02-18T10:04:25.186Z,93.27
2023-02-18T10:06:55.853Z,92.88
2023-02-18T10:09:27.084Z,92.37
2023-02-18T10:11:58.458Z,92.27
2023-02-18T10:14:27.619Z,94.20
2023-02-18T10:16:55.678Z,93.81
2023-02-18T10:19:29.019Z,94.09
2023-02-18T10:21:59.041Z,93.96
2023-02-18T10:24:31.532Z,93.14
2023-02-18T10:27:00.771Z,92.88
2023-02-18T10:29:32.281Z,93.16
2023-02-18T10:32:09.869Z,93.58
2023-02-18T10:34:42.771Z,95.11
2023-02-18T10:37:30.270Z,94.23
2023-02-18T10:40:11.795Z,94.87
2023-02-18T10:42:53.009Z,95.52
2023-02-18T10:45:32.900Z,94.70
2023-02-18T10:48:18.545Z,94.98
2023-02-18T10:50:47.720Z,94.94
2023-02-18T10:53:23.659Z,95.30
2023-02-18T10:55:54.542Z,95.40
2023-02-18T10:58:28.353Z,95.09
2023-02-18T11:00:56.759Z,94.76
2023-02-18T11:03:26.710Z,94.78
2023-02-18T11:05:57.550Z,94.69
2023-02-18T11:08:30.157Z,94.78
2023-02-18T11:10:59.338Z,94.20
2023-02-18T11:13:28.808Z,94.56
2023-02-18T11:15:59.342Z,94.18
2023-02-18T11:18:37.310Z,94.82
2023-02-18T11:21:08.189Z,94.79
2023-02-18T11:23:48.386Z,94.27
2023-02-18T11:26:18.857Z,93.75
2023-02-18T11:28:49.191Z,95.11
2023-02-18T11:31:23.348Z,94.49
2023-02-18T11:33:54.360Z,94.64
2023-02-18T11:36:27.250Z,94.79
2023-02-18T11:39:04.417Z,95.41
2023-02-18T11:41:36.592Z,95.32
2023-02-18T11:44:07.310Z,95.51
2023-02-18T11:46:35.625Z,95.74
2023-02-18T11:49:23.356Z,95.66
2023-02-18T11:51:52.042Z,96.76
2023-02-18T11:54:30.372Z,96.63
2023-02-18T11:57:01.127Z,97.02
2023-02-18T11:59:36.411Z,98.30
2023-02-18T12:02:23.451Z,100.00
2023-02-18T12:04:57.669Z,100.00
2023-02-18T12:07:31.882Z,100.00
2023-02-18T12:10:09.372Z,100.00
2023-02-18T12:12:45.039Z,100.00
2023-02-18T12:15:17.948Z,100.00
2023-02-18T12:18:21.988Z,100.00
2023-02-18T12:21:19.244Z,100.00
2023-02-18T12:23:58.037Z,100.00
2023-02-18T12:26:30.895Z,100.00
2023-02-18T12:29:28.869Z,100.00
2023-02-18T12:32:20.819Z,100.00
2023-02-18T12:34:59.046Z,100.00
2023-02-18T12:37:45.356Z,100.00
2023-02-18T12:40:31.382Z,100.00
2023-02-18T12:43:13.145Z,100.00
2023-02-18T12:45:55.276Z,100.00
2023-02-18T12:48:39.749Z,100.00
2023-02-18T12:51:20.005Z,100.00
2023-02-18T12:54:13.679Z,100.00
2023-02-18T12:57:06.077Z,100.00
2023-02-18T13:00:11.940Z,100.00
2023-02-18T13:03:18.761Z,100.00
2023-02-18T13:05:58.435Z,100.00
2023-02-18T13:08:40.458Z,100.00
2023-02-18T13:11:35.704Z,100.00
2023-02-18T13:14:11.021Z,100.00
2023-02-18T13:16:40.916Z,100.00
2023-02-18T13:19:20.394Z,100.00
2023-02-18T13:21:50.882Z,100.00
2023-02-18T13:24:27.480Z,100.00
2023-02-18T13:27:02.852Z,100.00
2023-02-18T13:29:35.856Z,100.00
2023-02-18T13:32:14.508Z,100.00
2023-02-18T13:34:52.583Z,100.00
2023-02-18T13:37:26.997Z,100.00
2023-02-18T13:39:57.486Z,100.00
2023-02-18T13:42:35.097Z,100.00
2023-02-18T13:45:33.966Z,100.00
2023-02-18T13:48:02.737Z,100.00
2023-02-18T13:50:43.175Z,100.00
2023-02-18T13:53:20.936Z,100.00
2023-02-18T13:55:55.149Z,100.00
2023-02-18T13:58:26.833Z,100.00
2023-02-18T14:01:00.401Z,100.00
2023-02-18T14:03:54.458Z,100.00
2023-02-18T14:06:26.016Z,100.00
2023-02-18T14:09:05.565Z,100.00
2023-02-18T14:11:47.868Z,100.00
2023-02-18T14:14:32.521Z,100.00
2023-02-18T14:17:38.545Z,100.00
2023-02-18T14:20:45.393Z,100.00
2023-02-18T14:23:43.449Z,100.00
2023-02-18T14:26:20.365Z,100.00
2023-02-18T14:28:55.784Z,97.76
2023-02-18T14:31:32.511Z,93.95
2023-02-18T14:34:33.990Z,92.93
2023-02-18T14:37:14.144Z,92.90
2023-02-18T14:39:55.544Z,92.83
2023-02-18T14:42:37.107Z,92.07
2023-02-18T14:45:16.773Z,92.74
2023-02-18T14:48:17.076Z,91.15
2023-02-18T14:50:50.109Z,92.20
2023-02-18T14:53:22.287Z,91.83
2023-02-18T14:55:55.022Z,90.40
2023-02-18T14:58:31.300Z,91.63
2023-02-18T15:00:59.620Z,91.70
2023-02-18T15:03:29.869Z,91.51
2023-02-18T15:05:57.758Z,90.73
2023-02-18T15:08:27.263Z,91.41
2023-02-18T15:11:00.818Z,88.41
2023-02-18T15:13:31.577Z,89.58
2023-02-18T15:16:02.886Z,90.95
2023-02-18T15:18:35.061Z,90.54
2023-02-18T15:21:03.842Z,88.61
2023-02-18T15:23:32.990Z,87.96
2023-02-18T15:26:02.389Z,89.69
2023-02-18T15:28:32.966Z,89.35
2023-02-18T15:31:02.788Z,89.67
2023-02-18T15:33:31.195Z,89.53
2023-02-18T15:36:03.281Z,90.29
2023-02-18T15:38:32.155Z,88.75
2023-02-18T15:41:02.228Z,87.03
2023-02-18T15:43:31.177Z,86.77
2023-02-18T15:45:59.981Z,86.63
2023-02-18T15:48:33.883Z,86.17
2023-02-18T15:51:16.168Z,85.26
2023-02-18T15:53:49.030Z,86.87
2023-02-18T15:56:22.899Z,87.22
2023-02-18T15:58:50.992Z,86.10
2023-02-18T16:01:28.642Z,86.63
2023-02-18T16:03:58.003Z,87.42
2023-02-18T16:06:28.379Z,86.74
2023-02-18T16:09:01.602Z,87.32
2023-02-18T16:11:35.088Z,86.46
2023-02-18T16:14:03.435Z,86.59
2023-02-18T16:16:34.624Z,85.83
2023-02-18T16:19:03.498Z,85.43
2023-02-18T16:21:34.462Z,84.98
2023-02-18T16:24:04.553Z,86.02
2023-02-18T16:26:44.536Z,86.72
2023-02-18T16:29:15.065Z,85.81
2023-02-18T16:31:43.098Z,86.82
2023-02-18T16:34:11.027Z,86.50
2023-02-18T16:36:59.118Z,86.55
2023-02-18T16:39:27.636Z,85.93
2023-02-18T16:41:57.877Z,85.64
2023-02-18T16:44:25.944Z,85.82
2023-02-18T16:46:54.007Z,85.13
2023-02-18T16:49:24.897Z,85.93
2023-02-18T16:51:52.995Z,86.62
2023-02-18T16:54:20.876Z,87.04
2023-02-18T16:56:49.366Z,86.93
2023-02-18T16:59:18.637Z,87.46
2023-02-18T17:01:47.061Z,87.76
2023-02-18T17:04:17.388Z,87.47
2023-02-18T17:06:46.452Z,88.14
2023-02-18T17:09:17.014Z,89.23
2023-02-18T17:11:46.074Z,88.78
2023-02-18T17:14:18.072Z,89.53
2023-02-18T17:16:48.269Z,89.46
2023-02-18T17:19:17.141Z,89.19
2023-02-18T17:21:50.127Z,88.14
2023-02-18T17:24:19.993Z,89.44
2023-02-18T17:26:48.027Z,89.34
2023-02-18T17:29:15.868Z,89.23
2023-02-18T17:34:32.704Z,90.68
2023-02-18T17:37:00.816Z,91.26
2023-02-18T17:39:31.323Z,91.50
2023-02-18T17:41:59.205Z,90.98
2023-02-18T17:44:29.176Z,90.68
2023-02-18T17:46:58.612Z,90.03
2023-02-18T17:49:26.451Z,90.39
2023-02-18T17:51:55.855Z,91.41
2023-02-18T17:54:26.104Z,89.93
2023-02-18T17:56:56.004Z,90.66
2023-02-18T17:59:24.188Z,91.04
2023-02-18T18:01:52.331Z,91.30
2023-02-18T18:04:21.832Z,90.31
2023-02-18T18:06:49.993Z,90.73
2023-02-18T18:09:17.999Z,90.79
2023-02-18T18:11:45.908Z,91.23
2023-02-18T18:14:15.215Z,90.65
2023-02-18T18:16:43.228Z,91.58
2023-02-18T18:19:11.136Z,91.08
2023-02-18T18:21:40.366Z,91.66
2023-02-18T18:24:09.566Z,93.78
2023-02-18T18:26:37.497Z,93.46
2023-02-18T18:29:05.508Z,92.78
2023-02-18T18:31:33.597Z,92.68
2023-02-18T18:34:02.952Z,92.19
2023-02-18T18:36:30.856Z,91.70
2023-02-18T18:39:00.234Z,91.61
2023-02-18T18:41:28.116Z,92.78
2023-02-18T18:43:56.051Z,93.15
2023-02-18T18:46:23.993Z,92.76
2023-02-18T18:48:52.826Z,93.49
2023-02-18T18:51:26.985Z,93.09
2023-02-18T18:53:55.102Z,93.13
2023-02-18T18:56:27.412Z,92.36
2023-02-18T18:58:55.612Z,92.78
2023-02-18T19:01:27.139Z,92.77
2023-02-18T19:03:55.439Z,91.87
2023-02-18T19:06:23.452Z,91.37
2023-02-18T19:08:51.389Z,91.86
2023-02-18T19:11:19.368Z,93.07
2023-02-18T19:13:48.608Z,92.70
2023-02-18T19:16:20.205Z,93.40
2023-02-18T19:18:48.884Z,92.73
2023-02-18T19:21:16.794Z,93.30
2023-02-18T19:23:45.066Z,93.67
2023-02-18T19:26:15.777Z,92.41
2023-02-18T19:28:44.512Z,92.46
2023-02-18T19:31:16.834Z,91.51
2023-02-18T19:33:47.063Z,91.87
2023-02-18T19:36:16.828Z,92.60
2023-02-18T19:38:48.658Z,92.95
2023-02-18T19:41:18.122Z,91.36
2023-02-18T19:43:47.118Z,92.72
2023-02-18T19:46:18.486Z,92.11
2023-02-18T19:48:50.670Z,91.82
2023-02-18T19:51:19.551Z,91.75
2023-02-18T19:53:47.955Z,92.57
2023-02-18T19:56:20.499Z,92.12
2023-02-18T19:58:48.820Z,91.28
2023-02-18T20:01:19.465Z,91.41
2023-02-18T20:03:47.681Z,90.41
2023-02-18T20:06:16.874Z,90.42
2023-02-18T20:08:45.015Z,91.28
2023-02-18T20:11:13.053Z,90.41
2023-02-18T20:13:41.697Z,90.95
2023-02-18T20:16:11.020Z,91.27
2023-02-18T20:18:40.605Z,91.87
2023-02-18T20:21:12.912Z,90.97
2023-02-18T20:23:41.153Z,91.37
2023-02-18T20:26:09.460Z,92.24
2023-02-18T20:28:37.606Z,90.69
2023-02-18T20:31:07.126Z,89.56
2023-02-18T20:33:35.353Z,91.77
2023-02-18T20:36:14.403Z,91.36
2023-02-18T20:38:42.663Z,91.04
2023-02-18T20:41:19.823Z,89.69
2023-02-18T20:43:52.420Z,90.82
2023-02-18T20:46:24.676Z,90.07
2023-02-18T20:48:53.266Z,89.85
2023-02-18T20:51:23.984Z,89.64
2023-02-18T20:54:40.311Z,89.75
2023-02-18T20:57:14.575Z,90.43
2023-02-18T20:59:43.742Z,90.64
2023-02-18T21:02:16.730Z,90.63
2023-02-18T21:04:45.210Z,90.79
2023-02-18T21:07:14.516Z,90.20
2023-02-18T21:09:45.214Z,90.03
2023-02-18T21:12:13.474Z,89.30
2023-02-18T21:14:41.589Z,89.00
2023-02-18T21:17:09.752Z,90.21
2023-02-18T21:19:38.046Z,89.72
2023-02-18T21:22:05.884Z,90.00
2023-02-18T21:24:36.839Z,89.92
2023-02-18T21:27:09.530Z,90.48
2023-02-18T21:29:37.455Z,89.79
2023-02-18T21:32:14.051Z,89.45
2023-02-18T21:34:42.587Z,89.81
2023-02-18T21:37:50.628Z,89.55
2023-02-18T21:40:36.350Z,89.22
2023-02-18T21:43:48.252Z,90.86
2023-02-18T21:47:09.874Z,90.52
2023-02-18T21:49:37.783Z,89.96
2023-02-18T21:52:32.458Z,89.70
2023-02-18T21:58:13.665Z,90.41
2023-02-18T22:00:41.908Z,90.44
2023-02-18T22:03:12.779Z,90.12
2023-02-18T22:05:41.236Z,89.72
2023-02-18T22:08:09.299Z,89.73
2023-02-18T22:10:58.982Z,89.84
2023-02-18T22:13:41.760Z,89.83
2023-02-18T22:16:10.023Z,89.49
2023-02-18T22:18:37.877Z,89.61
2023-02-18T22:21:08.765Z,89.42
2023-02-18T22:23:37.252Z,89.63
2023-02-18T22:26:06.531Z,88.52
2023-02-18T22:28:36.481Z,89.90
2023-02-18T22:31:07.788Z,89.94
2023-02-18T22:33:37.084Z,89.79
2023-02-18T22:36:07.325Z,89.33
2023-02-18T22:38:36.561Z,89.71
2023-02-18T22:41:05.888Z,88.63
2023-02-18T22:43:35.436Z,88.25
2023-02-18T22:46:04.208Z,87.64
2023-02-18T22:48:33.352Z,87.59
2023-02-18T22:51:10.539Z,87.20
2023-02-18T22:53:39.280Z,88.12
2023-02-18T22:56:09.430Z,88.03
2023-02-18T22:58:39.243Z,87.51
2023-02-18T23:01:08.370Z,86.71
2023-02-18T23:03:36.705Z,86.89
2023-02-18T23:06:05.892Z,84.95
2023-02-18T23:08:34.690Z,86.86
2023-02-18T23:11:03.219Z,86.79
2023-02-18T23:13:31.290Z,85.58
2023-02-18T23:16:01.823Z,85.92
2023-02-18T23:18:33.023Z,85.63
2023-02-18T23:21:21.912Z,85.98
2023-02-18T23:23:55.053Z,84.51
2023-02-18T23:26:26.785Z,84.78
2023-02-18T23:28:54.936Z,85.31
2023-02-18T23:31:29.169Z,85.49
2023-02-18T23:33:59.169Z,85.43
2023-02-18T23:36:46.763Z,84.74
2023-02-18T23:39:37.607Z,84.14
2023-02-18T23:42:24.976Z,83.79
2023-02-18T23:44:56.917Z,83.78
2023-02-18T23:47:26.109Z,83.66
2023-02-18T23:49:57.968Z,83.81
2023-02-18T23:52:26.015Z,84.58
2023-02-18T23:54:54.434Z,83.76
2023-02-18T23:57:23.980Z,83.50
2023-02-18T23:59:52.083Z,83.81
